Time;durP1;ratioP1;P1;durP2;ratioP2;P2;SDS_P1;SDS_P2;PMS_P1;PMS_P2;Temp;Humidity;BMP_temperature;BMP_pressure;BME280_temperature;BME280_humidity;BME280_pressure;Samples;Min_cycle;Max_cycle;Signal;HPM_P1;HPM_P2
2020/12/16 00:01:28;;;;;;;18.40;5.55;;;;;;;9.14;81.63;99732.38;4405762;32;20499;-77
2020/12/16 00:03:54;;;;;;;21.35;7.95;;;;;;;9.25;81.16;99727.19;4407143;32;20430;-78
2020/12/16 00:06:19;;;;;;;19.98;6.68;;;;;;;9.30;81.17;99731.44;4402323;32;20034;-78
2020/12/16 00:08:45;;;;;;;23.33;7.68;;;;;;;9.43;80.12;99735.78;4404531;32;20034;-78
2020/12/16 00:11:11;;;;;;;27.92;7.50;;;;;;;9.45;80.37;99746.56;4409289;32;20026;-78
2020/12/16 00:13:36;;;;;;;19.67;7.12;;;;;;;9.30;80.77;99739.88;4404891;32;20124;-78
2020/12/16 00:16:02;;;;;;;26.80;6.90;;;;;;;9.45;80.51;99735.34;4404765;32;20563;-78
2020/12/16 00:18:28;;;;;;;24.45;6.75;;;;;;;9.47;80.34;99733.63;4401216;32;20497;-79
2020/12/16 00:20:53;;;;;;;17.90;6.32;;;;;;;9.59;80.74;99729.19;4410176;32;20131;-80
2020/12/16 00:23:19;;;;;;;23.35;6.07;;;;;;;9.56;80.53;99722.47;4406943;32;20144;-78
2020/12/16 00:25:45;;;;;;;19.80;5.43;;;;;;;9.80;80.19;99715.16;4408027;32;20060;-78
2020/12/16 00:28:10;;;;;;;23.33;5.57;;;;;;;9.95;79.32;99713.38;4408480;32;20048;-78
2020/12/16 00:30:36;;;;;;;18.98;5.35;;;;;;;9.94;78.94;99705.41;4410915;32;20175;-77
2020/12/16 00:33:02;;;;;;;24.27;6.22;;;;;;;10.12;78.16;99710.41;4425275;26;20052;-80
2020/12/16 00:35:30;;;;;;;17.98;5.90;;;;;;;10.20;77.74;99706.03;4413935;32;20115;-80
2020/12/16 00:37:57;;;;;;;18.23;5.90;;;;;;;10.15;77.62;99710.25;4416876;32;20065;-80
2020/12/16 00:40:23;;;;;;;18.17;6.70;;;;;;;10.25;76.97;99711.06;4418250;32;20121;-79
2020/12/16 00:42:50;;;;;;;20.55;6.47;;;;;;;10.22;77.12;99709.19;4418711;32;20050;-79
2020/12/16 00:45:18;;;;;;;28.20;7.43;;;;;;;10.28;76.73;99705.28;4418710;32;20045;-80
2020/12/16 00:47:44;;;;;;;23.62;6.75;;;;;;;10.02;77.71;99701.09;4421867;32;20054;-79
2020/12/16 00:50:11;;;;;;;19.77;5.95;;;;;;;9.91;78.26;99703.50;4418460;32;20081;-79
2020/12/16 00:52:37;;;;;;;22.60;7.55;;;;;;;9.87;79.13;99692.41;4418966;32;20137;-80
2020/12/16 00:55:05;;;;;;;22.85;6.70;;;;;;;9.88;78.83;99699.59;4417519;32;20460;-80
2020/12/16 00:57:33;;;;;;;26.85;7.35;;;;;;;9.92;78.87;99691.03;4417405;32;20048;-79
2020/12/16 00:59:59;;;;;;;32.35;7.70;;;;;;;9.82;79.24;99693.00;4419872;32;20085;-80
2020/12/16 01:02:25;;;;;;;20.45;7.82;;;;;;;9.63;80.34;99677.25;4418882;32;20053;-80
2020/12/16 01:04:51;;;;;;;23.98;7.90;;;;;;;9.45;81.46;99682.75;4419898;32;21191;-79
2020/12/16 01:07:16;;;;;;;26.23;8.90;;;;;;;9.46;81.55;99678.72;4416859;32;20074;-80
2020/12/16 01:09:42;;;;;;;28.02;9.25;;;;;;;9.51;81.25;99678.12;4420932;32;20046;-79
2020/12/16 01:12:08;;;;;;;25.67;8.55;;;;;;;9.35;82.24;99674.69;4417211;32;20081;-80
2020/12/16 01:14:33;;;;;;;17.98;8.23;;;;;;;9.09;83.62;99671.22;4418086;32;20087;-80
2020/12/16 01:16:59;;;;;;;33.70;9.40;;;;;;;9.43;82.37;99684.44;4417002;32;20094;-79
2020/12/16 01:19:25;;;;;;;23.08;8.77;;;;;;;9.33;82.69;99675.16;4415315;32;20068;-79
2020/12/16 01:21:50;;;;;;;25.30;8.98;;;;;;;9.21;83.40;99667.56;4417081;32;20089;-79
2020/12/16 01:24:16;;;;;;;26.50;8.90;;;;;;;9.11;83.52;99667.97;4418793;32;20077;-79
2020/12/16 01:26:46;;;;;;;22.15;9.10;;;;;;;9.26;83.40;99661.38;4419183;32;20084;-80
2020/12/16 01:29:14;;;;;;;33.50;8.80;;;;;;;9.18;84.34;99671.28;4417442;32;20069;-79
2020/12/16 01:31:42;;;;;;;26.17;8.70;;;;;;;9.24;83.69;99658.25;4415342;32;20050;-80
2020/12/16 01:34:09;;;;;;;18.55;7.90;;;;;;;9.46;82.78;99655.47;4409890;32;20092;-80
2020/12/16 01:36:39;;;;;;;19.00;7.85;;;;;;;9.54;82.50;99657.53;4408933;32;20037;-79
2020/12/16 01:39:05;;;;;;;19.30;8.13;;;;;;;9.53;82.23;99646.75;4407566;32;20175;-79
2020/12/16 01:41:31;;;;;;;27.10;8.27;;;;;;;9.42;83.20;99644.34;4410186;32;20101;-80
2020/12/16 01:43:57;;;;;;;22.27;7.93;;;;;;;9.57;81.92;99644.59;4409175;32;20075;-79
2020/12/16 01:46:24;;;;;;;22.17;7.87;;;;;;;9.50;82.20;99645.66;4410393;32;20074;-79
2020/12/16 01:48:50;;;;;;;24.27;8.30;;;;;;;9.67;81.63;99644.19;4406896;32;20034;-79
2020/12/16 01:51:18;;;;;;;24.63;7.03;;;;;;;9.65;82.14;99651.53;4403487;32;20066;-80
2020/12/16 01:53:45;;;;;;;18.85;7.28;;;;;;;9.73;81.82;99645.19;4407190;32;20471;-79
2020/12/16 01:56:12;;;;;;;22.27;6.53;;;;;;;9.48;82.79;99639.72;4410355;32;20072;-80
2020/12/16 01:58:42;;;;;;;23.20;6.80;;;;;;;9.62;82.86;99641.22;4404271;32;20082;-80
2020/12/16 02:01:14;;;;;;;20.42;8.25;;;;;;;9.57;82.86;99622.13;4406578;32;20102;-80
2020/12/16 02:03:44;;;;;;;25.58;7.40;;;;;;;9.70;82.07;99620.03;4409866;32;20045;-79
2020/12/16 02:06:12;;;;;;;17.10;6.50;;;;;;;9.54;82.78;99632.25;4405301;32;20081;-79
2020/12/16 02:08:42;;;;;;;23.38;5.90;;;;;;;9.72;82.28;99632.38;4404425;32;20135;-79
2020/12/16 02:11:08;;;;;;;20.67;6.43;;;;;;;9.89;81.54;99618.91;4407413;32;20444;-80
2020/12/16 02:13:34;;;;;;;22.42;6.12;;;;;;;9.97;81.14;99620.97;4403526;32;20384;-80
2020/12/16 02:15:59;;;;;;;26.27;6.95;;;;;;;10.01;80.83;99609.59;4407893;32;20107;-79
2020/12/16 02:18:25;;;;;;;20.10;6.93;;;;;;;9.94;81.26;99610.63;4407182;32;20090;-79
2020/12/16 02:20:51;;;;;;;19.35;7.10;;;;;;;9.96;81.12;99604.56;4404980;32;20356;-79
2020/12/16 02:23:19;;;;;;;22.92;6.43;;;;;;;10.10;80.83;99589.97;4406233;32;20081;-80
2020/12/16 02:25:46;;;;;;;23.25;6.53;;;;;;;10.09;80.53;99596.84;4407352;32;20652;-79
2020/12/16 02:28:12;;;;;;;20.98;7.55;;;;;;;10.00;81.33;99597.56;4410260;32;20081;-79
2020/12/16 02:30:38;;;;;;;19.95;7.15;;;;;;;10.07;80.98;99590.91;4409917;32;20068;-79
2020/12/16 02:33:03;;;;;;;25.10;7.43;;;;;;;9.95;81.26;99595.34;4404279;32;20095;-80
2020/12/16 02:35:29;;;;;;;27.13;7.40;;;;;;;9.84;82.01;99600.59;4404199;32;20034;-79
2020/12/16 02:37:55;;;;;;;23.15;7.03;;;;;;;9.97;81.55;99598.47;4410372;32;20076;-79
2020/12/16 02:40:20;;;;;;;21.62;6.40;;;;;;;10.10;81.11;99599.19;4405298;32;20061;-80
2020/12/16 02:42:46;;;;;;;14.50;5.87;;;;;;;10.04;80.70;99598.19;4406618;32;20051;-79
2020/12/16 02:45:12;;;;;;;19.85;7.37;;;;;;;10.05;80.96;99590.53;4408041;32;20080;-79
2020/12/16 02:47:37;;;;;;;21.83;6.35;;;;;;;10.03;81.17;99593.03;4404454;32;20500;-80
2020/12/16 02:50:04;;;;;;;19.30;6.70;;;;;;;10.10;80.94;99596.37;4406716;32;20082;-79
2020/12/16 02:52:30;;;;;;;19.40;6.07;;;;;;;10.18;80.56;99580.00;4405145;32;20424;-80
2020/12/16 02:54:56;;;;;;;21.15;6.65;;;;;;;10.13;80.54;99578.56;4395391;32;20375;-80
2020/12/16 02:57:21;;;;;;;25.73;6.28;;;;;;;10.06;81.02;99578.06;4404518;32;20120;-79
2020/12/16 02:59:57;;;;;;;15.68;5.50;;;;;;;10.00;81.45;99583.50;4408439;32;20089;-79
2020/12/16 03:02:23;;;;;;;20.17;6.60;;;;;;;10.08;80.59;99579.19;4408640;32;20519;-79
2020/12/16 03:04:48;;;;;;;22.20;5.18;;;;;;;10.01;81.44;99564.63;4407831;32;20912;-80
2020/12/16 03:07:14;;;;;;;15.57;5.18;;;;;;;9.92;81.16;99565.34;4407054;32;20038;-80
2020/12/16 03:09:40;;;;;;;16.20;4.93;;;;;;;9.96;80.99;99563.19;4405769;32;20070;-80
2020/12/16 03:12:05;;;;;;;17.15;5.28;;;;;;;9.89;81.64;99562.69;4394830;32;20509;-79
2020/12/16 03:14:31;;;;;;;26.70;5.80;;;;;;;9.82;81.71;99565.78;4407472;32;20071;-80
2020/12/16 03:16:57;;;;;;;21.62;4.47;;;;;;;9.75;82.15;99560.44;4405862;32;20162;-79
2020/12/16 03:19:22;;;;;;;22.58;4.75;;;;;;;9.83;82.14;99561.72;4406606;32;20434;-80
2020/12/16 03:21:48;;;;;;;21.17;4.93;;;;;;;9.87;81.69;99568.78;4407152;32;20152;-80
2020/12/16 03:24:13;;;;;;;17.70;4.62;;;;;;;9.85;81.30;99562.06;4400893;32;20034;-79
2020/12/16 03:26:40;;;;;;;12.48;4.20;;;;;;;9.83;81.45;99561.72;4404858;32;20018;-79
2020/12/16 03:29:06;;;;;;;22.17;4.18;;;;;;;9.83;81.62;99567.34;4404686;32;20042;-79
2020/12/16 03:31:32;;;;;;;18.95;3.97;;;;;;;9.78;81.92;99563.12;4406826;32;20093;-80
2020/12/16 03:33:57;;;;;;;11.35;3.92;;;;;;;9.73;81.89;99560.91;4405081;32;20078;-79
2020/12/16 03:36:23;;;;;;;16.60;3.95;;;;;;;9.83;81.54;99548.47;4407120;32;20479;-79
2020/12/16 03:38:49;;;;;;;16.73;3.92;;;;;;;9.72;82.01;99534.06;4405586;32;20465;-79
2020/12/16 03:41:16;;;;;;;18.83;3.42;;;;;;;9.63;82.57;99517.16;4390283;32;20062;-80
2020/12/16 03:43:50;;;;;;;18.80;4.55;;;;;;;9.76;81.90;99511.47;4406360;32;20871;-79
2020/12/16 03:46:16;;;;;;;16.42;3.50;;;;;;;9.61;82.48;99513.25;4408322;32;20134;-79
2020/12/16 03:48:42;;;;;;;18.67;3.97;;;;;;;9.73;81.93;99513.13;4406161;32;20094;-80
2020/12/16 03:51:11;;;;;;;14.75;3.70;;;;;;;9.83;81.84;99505.53;4406465;32;20022;-80
2020/12/16 03:53:38;;;;;;;30.08;4.55;;;;;;;9.74;81.86;99509.09;4408328;32;20805;-79
2020/12/16 03:56:08;;;;;;;10.10;3.08;;;;;;;9.60;82.63;99504.03;4408777;32;20154;-79
2020/12/16 03:58:35;;;;;;;10.60;3.40;;;;;;;9.61;82.65;99497.16;4409209;32;20077;-80
2020/12/16 04:01:04;;;;;;;15.27;3.12;;;;;;;9.68;81.98;99494.09;4394757;32;20116;-79
2020/12/16 04:03:31;;;;;;;14.60;3.62;;;;;;;9.86;80.92;99490.56;4410414;32;20070;-80
2020/12/16 04:05:56;;;;;;;16.08;3.37;;;;;;;9.73;81.77;99490.66;4410377;32;20387;-80
2020/12/16 04:08:22;;;;;;;14.25;3.67;;;;;;;9.64;82.22;99499.06;4409331;32;20672;-80
2020/12/16 04:10:47;;;;;;;19.00;2.90;;;;;;;9.73;82.06;99499.09;4408731;32;20122;-79
2020/12/16 04:13:14;;;;;;;21.02;3.20;;;;;;;9.74;81.67;99500.69;4403949;32;20034;-79
2020/12/16 04:15:44;;;;;;;17.75;3.03;;;;;;;9.77;81.74;99499.75;4412074;32;20058;-79
2020/12/16 04:18:10;;;;;;;15.60;2.53;;;;;;;9.83;81.50;99486.66;4410460;32;20042;-79
2020/12/16 04:20:36;;;;;;;13.93;2.70;;;;;;;9.79;81.04;99499.28;4408033;32;20096;-79
2020/12/16 04:23:04;;;;;;;15.98;3.17;;;;;;;9.87;81.07;99492.13;4405285;32;20054;-79
2020/12/16 04:25:30;;;;;;;19.15;2.95;;;;;;;9.94;80.61;99506.66;4407463;32;20076;-80
2020/12/16 04:27:55;;;;;;;10.45;2.50;;;;;;;10.05;79.86;99509.84;4411749;32;20038;-79
2020/12/16 04:30:21;;;;;;;17.55;2.87;;;;;;;9.99;79.67;99506.06;4405830;32;20038;-79
2020/12/16 04:32:51;;;;;;;11.35;2.78;;;;;;;9.95;80.19;99496.22;4409889;32;20352;-80
2020/12/16 04:35:18;;;;;;;14.25;2.40;;;;;;;10.13;79.80;99509.56;4409279;32;20088;-81
2020/12/16 04:37:47;;;;;;;15.02;2.70;;;;;;;10.18;79.24;99497.72;4406867;32;20137;-80
2020/12/16 04:40:13;;;;;;;10.23;2.45;;;;;;;10.13;79.21;99503.94;4395499;32;20140;-80
2020/12/16 04:42:40;;;;;;;12.73;2.00;;;;;;;10.27;78.67;99500.53;4408491;32;20623;-80
2020/12/16 04:45:07;;;;;;;11.43;1.90;;;;;;;10.30;79.03;99496.75;4403529;32;20046;-80
2020/12/16 04:47:33;;;;;;;11.57;2.28;;;;;;;10.33;78.38;99490.22;4408244;32;20454;-80
2020/12/16 04:49:59;;;;;;;7.90;2.28;;;;;;;10.02;79.61;99488.28;4410826;32;20217;-79
2020/12/16 04:52:28;;;;;;;10.25;2.17;;;;;;;10.08;79.78;99489.25;4399585;32;20042;-80
2020/12/16 04:54:54;;;;;;;19.73;3.12;;;;;;;10.24;78.96;99481.78;4394229;32;20098;-80
2020/12/16 04:57:22;;;;;;;13.45;2.72;;;;;;;10.23;79.12;99474.59;4413102;32;20146;-80
2020/12/16 04:59:47;;;;;;;10.60;2.30;;;;;;;10.00;80.02;99465.47;4404950;32;20046;-80
2020/12/16 05:02:13;;;;;;;15.88;3.00;;;;;;;10.16;79.53;99472.09;4396776;32;20086;-81
2020/12/16 05:04:39;;;;;;;8.40;2.50;;;;;;;10.17;79.79;99471.62;4409389;32;20082;-81
2020/12/16 05:07:05;;;;;;;11.45;2.70;;;;;;;10.06;80.27;99466.44;4409305;32;20135;-80
2020/12/16 05:09:31;;;;;;;9.52;1.83;;;;;;;10.15;80.11;99443.19;4410433;32;20470;-81
2020/12/16 05:11:57;;;;;;;14.20;2.15;;;;;;;10.25;79.71;99441.97;4408060;32;20082;-80
2020/12/16 05:14:24;;;;;;;12.27;2.40;;;;;;;10.14;80.05;99433.19;4410823;32;20068;-80
2020/12/16 05:16:53;;;;;;;16.92;3.03;;;;;;;9.94;81.11;99438.44;4411667;32;20072;-80
2020/12/16 05:19:41;;;;;;;23.42;2.85;;;;;;;10.13;80.04;99423.22;4411924;32;20123;-80
2020/12/16 05:24:52;;;;;;;19.67;2.90;;;;;;;10.41;79.72;99415.56;3982625;32;15132496;-81
2020/12/16 05:30:01;;;;;;;16.65;2.35;;;;;;;10.53;79.57;99420.97;3985678;32;15023881;-80
2020/12/16 05:32:29;;;;;;;13.95;3.15;;;;;;;10.53;79.57;99420.25;4434227;32;20067;-80
2020/12/16 05:34:57;;;;;;;22.62;3.67;;;;;;;10.01;81.26;99410.06;4424611;32;20045;-81
2020/12/16 05:37:33;;;;;;;12.13;2.35;;;;;;;9.89;81.81;99423.00;4425303;32;20200;-80
2020/12/16 05:42:35;;;;;;;17.98;3.35;;;;;;;10.56;79.93;99428.34;3959126;32;15022476;-80
2020/12/16 05:45:18;;;;;;;12.52;2.70;;;;;;;10.57;79.96;99423.66;4437688;32;20096;-80
2020/12/16 05:48:06;;;;;;;15.02;3.03;;;;;;;10.32;79.74;99409.94;4437075;32;20122;-80
2020/12/16 05:53:14;;;;;;;16.17;2.65;;;;;;;10.30;80.30;99423.66;3985175;32;15022711;-79
2020/12/16 05:55:41;;;;;;;17.37;2.50;;;;;;;10.39;79.82;99420.84;4439601;32;20398;-79
2020/12/16 06:00:46;;;;;;;12.27;2.45;;;;;;;10.59;78.98;99423.97;3984103;32;15022005;-79
2020/12/16 06:03:20;;;;;;;14.65;2.45;;;;;;;10.58;78.91;99411.94;4434287;32;20204;-81
2020/12/16 06:05:49;;;;;;;13.80;2.35;;;;;;;10.60;78.83;99409.44;4438531;32;20077;-80
2020/12/16 06:08:15;;;;;;;21.30;5.65;;;;;;;10.56;79.16;99425.72;4438336;32;20048;-80
2020/12/16 06:10:44;;;;;;;12.20;2.47;;;;;;;10.43;79.83;99422.25;4438771;32;20101;-80
2020/12/16 06:13:13;;;;;;;13.88;2.97;;;;;;;10.47;79.53;99420.09;4436053;32;20069;-80
2020/12/16 06:16:07;;;;;;;11.05;2.37;;;;;;;10.27;80.75;99424.63;4437507;32;20158;-80
2020/12/16 06:21:11;;;;;;;18.15;3.08;;;;;;;10.92;78.97;99414.37;3956304;32;15731616;-81
2020/12/16 06:23:45;;;;;;;11.43;2.40;;;;;;;10.92;78.97;99414.37;4433799;32;20026;-79
2020/12/16 06:28:46;;;;;;;12.10;3.08;;;;;;;10.84;79.07;99426.44;3955500;32;15725665;-80
2020/12/16 06:34:12;;;;;;;13.35;2.35;;;;;;;10.88;79.20;99410.16;3966349;32;15022986;-81
2020/12/16 06:36:40;;;;;;;14.27;1.70;;;;;;;10.88;79.20;99410.16;4420457;32;21079;-80
2020/12/16 06:39:16;;;;;;;20.12;3.10;;;;;;;10.41;79.87;99407.91;4423733;32;20083;-81
2020/12/16 06:41:59;;;;;;;11.80;2.92;;;;;;;10.19;80.92;99400.88;4422719;32;20056;-81
2020/12/16 06:44:27;;;;;;;18.15;2.50;;;;;;;10.49;79.54;99400.69;4422475;32;20045;-80
2020/12/16 06:46:54;;;;;;;17.25;2.67;;;;;;;10.48;79.62;99406.78;4420219;32;20166;-81
2020/12/16 06:52:03;;;;;;;16.10;2.12;;;;;;;11.04;77.94;99407.00;3973523;32;15025683;-80
2020/12/16 06:54:41;;;;;;;13.43;2.03;;;;;;;11.04;77.94;99407.00;4427714;32;20095;-80
2020/12/16 06:57:11;;;;;;;17.65;2.60;;;;;;;10.67;78.75;99414.75;4426570;32;20022;-81
2020/12/16 07:04:59;;;;;;;19.62;2.67;;;;;;;10.99;79.13;99442.22;3983505;32;15025983;-79
2020/12/16 07:07:49;;;;;;;13.85;2.37;;;;;;;10.99;79.13;99442.22;4434625;32;20080;-80
2020/12/16 07:26:29;;;;;;;18.77;2.83;;;;;;;10.71;83.56;99437.87;3987419;31;15014119;-79
2020/12/16 07:28:57;;;;;;;12.18;2.75;;;;;;;10.71;83.56;99437.87;4440104;32;20041;-81
2020/12/16 07:31:23;;;;;;;20.73;2.83;;;;;;;9.96;86.01;99430.31;4442802;32;20411;-79
2020/12/16 07:33:50;;;;;;;10.30;2.67;;;;;;;10.06;86.16;99415.03;4428919;32;20527;-82
2020/12/16 07:36:18;;;;;;;11.18;2.37;;;;;;;9.84;87.55;99409.56;4419178;32;20103;-82
2020/12/16 07:38:49;;;;;;;17.50;4.55;;;;;;;9.82;87.30;99406.41;4425732;32;20082;-81
2020/12/16 07:43:59;;;;;;;16.43;2.93;;;;;;;9.75;88.09;99403.91;3997959;31;15016934;-80
2020/12/16 07:46:26;;;;;;;11.90;2.72;;;;;;;9.76;88.27;99401.91;4458504;32;20079;-80
2020/12/16 07:48:52;;;;;;;19.77;2.72;;;;;;;9.81;87.66;99399.25;4459318;32;20080;-80
2020/12/16 07:51:19;;;;;;;19.98;2.62;;;;;;;9.83;87.48;99408.00;4453759;32;20491;-81
2020/12/16 07:53:48;;;;;;;25.58;3.25;;;;;;;9.80;87.85;99400.50;4457831;32;20045;-82
2020/12/16 07:56:15;;;;;;;20.75;2.83;;;;;;;9.89;87.90;99406.13;4459289;32;20163;-83
2020/12/16 07:58:41;;;;;;;16.58;2.50;;;;;;;9.89;87.44;99425.00;4457043;32;21311;-82
2020/12/16 08:01:12;;;;;;;16.17;2.30;;;;;;;9.98;87.37;99405.34;4443092;32;20045;-83
2020/12/16 08:03:39;;;;;;;19.37;2.67;;;;;;;9.89;87.00;99405.34;4440358;32;20422;-86
2020/12/16 08:06:06;;;;;;;19.92;2.72;;;;;;;9.98;86.73;99399.75;4452772;32;20102;-81
2020/12/16 08:08:42;;;;;;;22.48;2.55;;;;;;;10.02;87.37;99403.16;4456576;32;20156;-85
2020/12/16 08:11:16;;;;;;;11.12;3.50;;;;;;;10.04;86.02;99406.31;4455364;32;20049;-84
2020/12/16 08:13:42;;;;;;;18.10;3.67;;;;;;;10.15;85.64;99411.50;4458239;32;20083;-81
2020/12/16 08:16:08;;;;;;;10.68;1.90;;;;;;;9.98;86.16;99425.78;4454115;32;20025;-80
2020/12/16 08:18:34;;;;;;;8.02;2.40;;;;;;;9.98;86.21;99394.88;4454252;32;20699;-81
2020/12/16 08:21:18;;;;;;;10.93;2.37;;;;;;;10.03;86.23;99407.53;4448802;32;20110;-81
2020/12/16 08:23:44;;;;;;;12.23;1.98;;;;;;;10.18;86.36;99402.12;4454395;32;20645;-83
2020/12/16 08:26:11;;;;;;;9.52;1.95;;;;;;;10.15;85.64;99400.25;4456635;32;20407;-80
2020/12/16 08:28:36;;;;;;;17.33;2.22;;;;;;;9.94;86.15;99404.72;4456011;32;20365;-81
2020/12/16 08:31:04;;;;;;;12.85;2.65;;;;;;;10.08;86.04;99401.34;4458459;32;20060;-80
2020/12/16 08:33:30;;;;;;;10.38;2.47;;;;;;;10.16;85.76;99401.81;4447732;32;20723;-79
2020/12/16 08:36:01;;;;;;;11.63;2.50;;;;;;;10.04;86.75;99406.31;4439431;32;20048;-78
2020/12/16 08:41:06;;;;;;;11.50;2.37;;;;;;;10.23;86.22;99412.75;3956241;32;15732225;-79
2020/12/16 08:43:35;;;;;;;15.77;2.72;;;;;;;10.15;87.04;99417.13;4429717;32;21213;-83
2020/12/16 08:48:40;;;;;;;12.85;3.15;;;;;;;10.58;85.22;99426.00;3950420;32;15724663;-83
2020/12/16 08:51:08;;;;;;;10.18;2.65;;;;;;;10.58;85.22;99426.00;4429805;32;20103;-81
2020/12/16 08:53:55;;;;;;;16.37;2.92;;;;;;;10.30;85.87;99412.41;4425881;32;20025;-81
2020/12/16 08:56:23;;;;;;;21.20;3.37;;;;;;;10.17;86.70;99412.59;4425338;32;20081;-84
2020/12/16 09:01:36;;;;;;;10.80;3.13;;;;;;;10.80;84.94;99429.41;3984333;31;15015323;-87
2020/12/16 09:04:05;;;;;;;15.60;2.85;;;;;;;10.80;84.94;99429.41;4439833;32;20083;-83
2020/12/16 09:06:31;;;;;;;14.63;2.87;;;;;;;10.51;85.29;99417.09;4435268;32;20085;-80
2020/12/16 09:08:57;;;;;;;17.83;2.55;;;;;;;10.51;84.42;99417.91;4435797;32;21058;-79
2020/12/16 09:11:24;;;;;;;15.45;3.08;;;;;;;10.46;84.96;99415.69;4437747;32;20076;-82
2020/12/16 09:13:56;;;;;;;17.17;2.78;;;;;;;10.48;85.47;99401.97;4436675;32;20077;-81
2020/12/16 09:16:24;;;;;;;11.20;2.53;;;;;;;10.57;84.84;99413.19;4435228;32;20081;-78
2020/12/16 09:18:52;;;;;;;16.15;3.20;;;;;;;10.40;84.96;99389.44;4436091;32;20178;-78
2020/12/16 09:21:30;;;;;;;27.15;4.18;;;;;;;10.58;85.06;99397.88;4439592;32;20104;-80
2020/12/16 09:23:56;;;;;;;11.68;2.00;;;;;;;10.62;84.53;99398.53;4435074;32;20145;-79
2020/12/16 09:26:41;;;;;;;15.30;2.92;;;;;;;10.62;84.27;99400.53;4438194;32;20420;-81
2020/12/16 09:29:29;;;;;;;17.62;3.50;;;;;;;10.72;83.78;99400.06;4436237;32;20469;-78
2020/12/16 09:32:14;;;;;;;13.02;2.75;;;;;;;10.74;83.51;99402.41;4439104;32;20060;-82
2020/12/16 09:34:43;;;;;;;8.65;2.30;;;;;;;10.67;83.25;99405.50;4423971;32;20482;-79
2020/12/16 09:39:48;;;;;;;17.77;2.80;;;;;;;11.09;82.36;99400.72;3965885;32;15022200;-82
2020/12/16 09:42:17;;;;;;;16.25;2.53;;;;;;;11.09;82.36;99400.72;4417894;32;20079;-79
2020/12/16 09:44:44;;;;;;;9.52;2.80;;;;;;;10.82;82.10;99386.72;4419137;32;20594;-81
2020/12/16 09:49:57;;;;;;;14.95;2.50;;;;;;;11.28;81.17;99405.03;3968709;32;15029434;-84
2020/12/16 09:52:24;;;;;;;14.38;3.03;;;;;;;11.28;81.17;99405.03;4430443;32;20127;-81
2020/12/16 09:54:50;;;;;;;11.12;2.12;;;;;;;10.93;81.87;99401.88;4430661;32;20081;-81
2020/12/16 09:57:20;;;;;;;13.85;2.80;;;;;;;10.91;82.23;99400.78;4427279;32;20073;-78
2020/12/16 09:59:46;;;;;;;11.95;2.78;;;;;;;10.99;81.61;99399.22;4430283;32;20523;-79
2020/12/16 10:02:12;;;;;;;10.95;2.33;;;;;;;10.89;82.50;99397.69;4428997;32;20176;-80
2020/12/16 10:04:37;;;;;;;9.75;2.30;;;;;;;10.89;83.13;99394.88;4429410;32;20518;-80
2020/12/16 10:07:03;;;;;;;8.75;2.42;;;;;;;10.91;83.07;99401.56;4428175;32;20070;-79
2020/12/16 10:09:29;;;;;;;8.80;2.53;;;;;;;10.87;83.22;99400.19;4428260;32;20068;-80
2020/12/16 10:11:54;;;;;;;13.00;2.95;;;;;;;10.92;82.59;99391.87;4433378;32;20155;-81
2020/12/16 10:14:20;;;;;;;13.23;2.30;;;;;;;10.97;83.22;99393.25;4436787;32;20076;-78
2020/12/16 10:16:47;;;;;;;12.68;2.42;;;;;;;10.98;82.93;99394.84;4432360;32;20471;-79
2020/12/16 10:19:16;;;;;;;17.55;2.60;;;;;;;10.82;83.52;99398.00;4429449;32;20100;-78
2020/12/16 10:21:47;;;;;;;9.68;2.85;;;;;;;10.86;82.78;99393.00;4429075;32;20084;-78
2020/12/16 10:24:13;;;;;;;20.50;2.58;;;;;;;10.91;82.78;99400.78;4428466;32;20153;-77
2020/12/16 10:26:38;;;;;;;12.25;2.72;;;;;;;10.98;81.93;99392.03;4426494;32;20304;-77
2020/12/16 10:29:04;;;;;;;13.27;2.67;;;;;;;11.01;82.43;99394.66;4423638;32;20054;-77
2020/12/16 10:31:30;;;;;;;14.50;2.95;;;;;;;10.88;82.48;99394.06;4424867;32;20190;-78
2020/12/16 10:33:55;;;;;;;15.40;2.95;;;;;;;10.95;82.32;99401.41;4417214;32;20089;-78
2020/12/16 10:36:21;;;;;;;17.83;3.12;;;;;;;10.96;81.84;99397.34;4415237;32;20485;-78
2020/12/16 10:38:47;;;;;;;12.52;2.53;;;;;;;11.00;81.72;99395.12;4415162;32;20095;-78
2020/12/16 10:41:12;;;;;;;15.35;3.35;;;;;;;11.11;82.19;99384.91;4414251;32;20070;-78
2020/12/16 10:43:38;;;;;;;12.88;3.12;;;;;;;11.03;82.15;99394.19;4416713;32;20077;-77
2020/12/16 10:46:07;;;;;;;11.50;2.55;;;;;;;10.97;82.78;99379.97;4413523;32;20038;-77
2020/12/16 10:48:33;;;;;;;15.93;2.80;;;;;;;10.90;83.49;99383.13;4414863;32;20033;-79
2020/12/16 10:50:59;;;;;;;13.65;3.67;;;;;;;10.80;83.50;99378.00;4412396;32;20115;-76
2020/12/16 10:53:25;;;;;;;20.15;3.17;;;;;;;10.91;83.72;99367.00;4414708;32;20076;-75
2020/12/16 10:55:52;;;;;;;13.18;3.67;;;;;;;11.05;82.79;99371.97;4413477;32;20092;-76
2020/12/16 10:58:18;;;;;;;10.60;2.60;;;;;;;10.99;83.04;99368.25;4416688;32;20091;-76
2020/12/16 11:00:44;;;;;;;11.73;3.08;;;;;;;11.00;82.71;99378.25;4405253;32;20029;-81
2020/12/16 11:03:10;;;;;;;12.55;3.53;;;;;;;10.97;82.41;99357.47;4404268;32;20108;-74
2020/12/16 11:05:36;;;;;;;12.82;3.05;;;;;;;11.10;82.51;99354.44;4405737;32;20085;-75
2020/12/16 11:08:02;;;;;;;15.07;2.83;;;;;;;11.11;82.00;99350.38;4406969;32;20109;-76
2020/12/16 11:10:28;;;;;;;15.15;2.60;;;;;;;11.15;81.55;99343.31;4405166;32;20069;-76
2020/12/16 11:12:54;;;;;;;16.65;3.78;;;;;;;11.05;81.86;99347.41;4405452;32;20073;-78
2020/12/16 11:15:20;;;;;;;18.00;3.05;;;;;;;11.10;81.66;99335.50;4403877;32;20552;-77
2020/12/16 11:17:46;;;;;;;14.65;2.25;;;;;;;11.22;81.04;99340.16;4405756;32;20034;-77
2020/12/16 11:20:11;;;;;;;14.02;2.90;;;;;;;11.32;80.99;99344.47;4405129;32;20077;-75
2020/12/16 11:22:37;;;;;;;13.25;3.33;;;;;;;11.39;80.26;99346.16;4404857;32;20420;-76
2020/12/16 11:25:05;;;;;;;9.60;2.50;;;;;;;11.39;80.33;99346.16;4404529;32;20030;-75
2020/12/16 11:27:30;;;;;;;12.27;2.72;;;;;;;11.51;79.56;99343.09;4405928;32;20093;-76
2020/12/16 11:29:56;;;;;;;13.20;2.70;;;;;;;11.25;81.03;99330.75;4402621;32;20092;-79
2020/12/16 11:32:22;;;;;;;19.45;3.22;;;;;;;11.16;80.57;99333.59;4408592;32;20080;-79
2020/12/16 11:34:47;;;;;;;15.10;3.50;;;;;;;11.25;81.34;99336.38;4406795;32;20092;-80
2020/12/16 11:37:14;;;;;;;11.10;2.47;;;;;;;11.17;81.27;99335.16;4406239;32;20063;-80
2020/12/16 11:39:41;;;;;;;15.65;2.85;;;;;;;11.20;81.30;99336.25;4403033;32;20080;-80
2020/12/16 11:42:07;;;;;;;12.90;2.83;;;;;;;11.21;81.78;99341.41;4402473;32;20069;-80
2020/12/16 11:44:34;;;;;;;17.45;3.72;;;;;;;11.08;81.40;99337.25;4401983;32;20515;-80
2020/12/16 11:46:59;;;;;;;16.55;3.35;;;;;;;11.13;81.74;99345.81;4400129;32;20146;-79
2020/12/16 11:49:27;;;;;;;14.48;2.72;;;;;;;11.10;81.79;99345.97;4403086;32;20092;-86
2020/12/16 11:51:54;;;;;;;14.48;3.35;;;;;;;11.14;82.49;99338.16;4402447;32;20089;-82
2020/12/16 11:54:21;;;;;;;12.52;2.80;;;;;;;11.04;82.14;99340.22;4403191;32;20152;-82
2020/12/16 11:56:47;;;;;;;16.52;3.25;;;;;;;11.12;82.95;99349.09;4404283;32;20090;-81
2020/12/16 11:59:12;;;;;;;14.93;3.03;;;;;;;10.96;83.58;99321.34;4402257;32;20485;-81
2020/12/16 12:01:40;;;;;;;19.20;3.67;;;;;;;10.94;84.42;99327.44;4404757;32;20446;-77
2020/12/16 12:04:07;;;;;;;14.55;3.55;;;;;;;10.95;84.02;99317.75;4404831;32;20098;-74
2020/12/16 12:06:33;;;;;;;10.02;2.90;;;;;;;11.10;83.82;99317.81;4407381;32;20081;-75
2020/12/16 12:08:58;;;;;;;19.37;3.45;;;;;;;10.99;83.62;99326.03;4404765;32;20150;-75
2020/12/16 12:11:24;;;;;;;12.00;3.50;;;;;;;11.10;83.29;99317.81;4404540;32;21279;-74
2020/12/16 12:13:51;;;;;;;13.38;3.05;;;;;;;11.07;83.04;99307.53;4401267;32;20120;-74
2020/12/16 12:16:17;;;;;;;11.93;3.62;;;;;;;11.07;83.21;99313.16;4400853;32;20104;-74
2020/12/16 12:18:44;;;;;;;13.60;3.65;;;;;;;11.04;82.27;99305.66;4399211;32;20049;-77
2020/12/16 12:21:11;;;;;;;12.02;3.28;;;;;;;11.10;82.50;99303.75;4405369;32;20619;-75
2020/12/16 12:23:37;;;;;;;10.57;3.10;;;;;;;11.04;82.46;99289.56;4404908;32;20042;-76
2020/12/16 12:26:04;;;;;;;12.32;3.15;;;;;;;11.03;82.11;99299.28;4406195;32;20177;-77
2020/12/16 12:28:31;;;;;;;15.27;3.40;;;;;;;11.09;82.99;99299.37;4401940;32;20441;-76
2020/12/16 12:30:57;;;;;;;11.07;3.10;;;;;;;10.96;83.67;99296.81;4403766;32;20099;-74